Glasgow, Missouri
Current Conditions -  °F | °C
As of 3:35 AM on Wednesday 26 Nov 2014 (Local Time) from KMHL Reporting Station
Clear Clear  
Wind Chill: -2°   Ceiling: Unl
Heat Index:   Visibility: 10mi
Dew Point: -3°   Wind: 6mph
Humidity: 75%   Direction: 130°SE
Pressure: 30"   Gusts: NA
Location:  39.23°N, 92.85°W
Report Text: KMHL 260935Z AUTO 13005KT 10SM CLR 01/M03 A3000 RMK AO2
Loading
Personal Weather Stations






























Interactive Weather Map New forecast layout! Learn more

10-Day Weather Forecast

Advertisements
Track Severe Weather on mobile